createdAt,value
2019-06-20T00:00:49.228Z,4.75
2019-06-20T00:03:18.198Z,4.53
2019-06-20T00:05:47.110Z,5.00
2019-06-20T00:08:15.905Z,5.13
2019-06-20T00:10:44.744Z,5.03
2019-06-20T00:13:13.545Z,5.33
2019-06-20T00:15:42.265Z,5.00
2019-06-20T00:18:11.082Z,5.85
2019-06-20T00:20:39.810Z,4.90
2019-06-20T00:23:08.556Z,5.20
2019-06-20T00:25:37.507Z,5.30
2019-06-20T00:28:06.250Z,4.75
2019-06-20T00:30:34.970Z,4.97
2019-06-20T00:33:03.781Z,5.80
2019-06-20T00:35:32.660Z,5.60
2019-06-20T00:38:01.483Z,5.40
2019-06-20T00:40:30.197Z,5.77
2019-06-20T00:42:58.998Z,5.55
2019-06-20T00:45:27.730Z,5.30
2019-06-20T00:47:56.631Z,4.80
2019-06-20T00:50:25.356Z,4.75
2019-06-20T00:52:54.381Z,4.03
2019-06-20T00:55:23.337Z,4.80
2019-06-20T00:57:52.094Z,4.80
2019-06-20T01:00:21.660Z,4.73
2019-06-20T01:02:50.466Z,4.80
2019-06-20T01:05:19.256Z,4.95
2019-06-20T01:07:47.997Z,5.20
2019-06-20T01:10:16.877Z,5.27
2019-06-20T01:12:45.731Z,5.30
2019-06-20T01:15:14.758Z,5.13
2019-06-20T01:17:43.638Z,5.30
2019-06-20T01:20:14.029Z,5.07
2019-06-20T01:22:42.769Z,4.72
2019-06-20T01:25:11.851Z,4.15
2019-06-20T01:27:40.573Z,4.57
2019-06-20T01:30:10.575Z,4.33
2019-06-20T01:32:39.298Z,4.50
2019-06-20T01:35:08.504Z,4.20
2019-06-20T01:37:37.333Z,4.10
2019-06-20T01:40:06.561Z,4.10
2019-06-20T01:42:35.279Z,4.12
2019-06-20T01:45:04.227Z,4.20
2019-06-20T01:47:32.934Z,3.90
2019-06-20T01:50:01.667Z,3.90
2019-06-20T01:52:30.398Z,3.77
2019-06-20T01:54:59.167Z,4.03
2019-06-20T01:57:27.920Z,4.07
2019-06-20T01:59:57.290Z,4.20
2019-06-20T02:02:26.029Z,3.97
2019-06-20T02:04:55.175Z,3.63
2019-06-20T02:07:27.118Z,3.43
2019-06-20T02:09:54.343Z,3.50
2019-06-20T02:12:23.068Z,3.47
2019-06-20T02:14:51.853Z,3.80
2019-06-20T02:17:20.585Z,3.90
2019-06-20T02:19:49.355Z,3.60
2019-06-20T02:22:18.355Z,3.80
2019-06-20T02:24:47.168Z,4.20
2019-06-20T02:27:15.883Z,3.80
2019-06-20T02:29:44.638Z,3.87
2019-06-20T02:32:13.339Z,3.60
2019-06-20T02:34:42.080Z,3.83
2019-06-20T02:37:10.789Z,4.57
2019-06-20T02:39:39.518Z,4.70
2019-06-20T02:42:08.353Z,4.63
2019-06-20T02:44:37.222Z,4.93
2019-06-20T02:47:06.087Z,4.20
2019-06-20T02:49:34.834Z,4.27
2019-06-20T02:52:04.085Z,4.10
2019-06-20T02:54:32.908Z,4.90
2019-06-20T02:57:01.624Z,4.40
2019-06-20T02:59:30.635Z,4.20
2019-06-20T03:01:59.332Z,5.00
2019-06-20T03:04:28.065Z,4.55
2019-06-20T03:06:56.857Z,4.80
2019-06-20T03:09:25.597Z,4.35
2019-06-20T03:11:54.355Z,4.20
2019-06-20T03:14:23.245Z,4.47
2019-06-20T03:16:51.964Z,4.53
2019-06-20T03:19:20.701Z,4.90
2019-06-20T03:21:50.251Z,4.07
2019-06-20T03:24:19.425Z,4.30
2019-06-20T03:26:48.275Z,4.37
2019-06-20T03:29:17.005Z,4.53
2019-06-20T03:31:46.162Z,4.60
2019-06-20T03:34:14.882Z,4.67
2019-06-20T03:36:43.652Z,5.40
2019-06-20T03:39:12.377Z,5.25
2019-06-20T03:41:41.165Z,5.40
2019-06-20T03:44:09.878Z,4.92
2019-06-20T03:46:38.602Z,5.03
2019-06-20T03:49:07.312Z,5.55
2019-06-20T03:51:36.021Z,4.80
2019-06-20T03:54:05.002Z,5.42
2019-06-20T03:56:33.723Z,5.67
2019-06-20T03:59:03.692Z,4.90
2019-06-20T04:01:32.581Z,5.53
2019-06-20T04:04:01.313Z,5.63
2019-06-20T04:06:30.038Z,5.70
2019-06-20T04:08:58.761Z,6.07
2019-06-20T04:11:27.620Z,5.20
2019-06-20T04:13:56.343Z,5.60
2019-06-20T04:16:26.552Z,5.47
2019-06-20T04:18:55.364Z,5.60
2019-06-20T04:21:24.300Z,5.87
2019-06-20T04:23:53.028Z,7.00
2019-06-20T04:26:21.909Z,8.95
2019-06-20T04:28:50.736Z,8.67
2019-06-20T04:31:19.436Z,7.83
2019-06-20T04:33:48.279Z,7.40
2019-06-20T04:36:17.004Z,8.08
2019-06-20T04:38:45.789Z,6.23
2019-06-20T04:41:14.595Z,5.30
2019-06-20T04:43:43.329Z,5.50
2019-06-20T04:46:21.467Z,6.20
2019-06-20T04:48:50.288Z,5.70
2019-06-20T04:51:19.025Z,6.13
2019-06-20T04:53:47.802Z,5.70
2019-06-20T04:56:16.877Z,5.80
2019-06-20T04:58:45.748Z,5.97
2019-06-20T05:01:14.478Z,6.20
2019-06-20T05:03:43.328Z,6.20
2019-06-20T05:06:12.426Z,5.90
2019-06-20T05:08:41.267Z,6.43
2019-06-20T05:11:10.650Z,6.30
2019-06-20T05:13:39.626Z,5.60
2019-06-20T05:16:08.623Z,6.67
2019-06-20T05:18:37.332Z,5.33
2019-06-20T05:21:07.335Z,5.70
2019-06-20T05:23:37.916Z,5.40
2019-06-20T05:26:06.703Z,5.83
2019-06-20T05:28:35.636Z,5.78
2019-06-20T05:31:04.794Z,6.00
2019-06-20T05:33:33.841Z,6.08
2019-06-20T05:36:02.680Z,6.17
2019-06-20T05:38:31.379Z,6.47
2019-06-20T05:41:00.217Z,5.60
2019-06-20T05:43:28.946Z,6.35
2019-06-20T05:46:08.822Z,5.90
2019-06-20T05:48:28.521Z,6.78
2019-06-20T05:50:57.316Z,6.17
2019-06-20T05:53:26.083Z,6.25
2019-06-20T05:55:54.821Z,6.30
2019-06-20T05:58:23.554Z,6.47
2019-06-20T06:00:52.457Z,6.47
2019-06-20T06:03:21.320Z,6.35
2019-06-20T06:05:50.355Z,7.47
2019-06-20T06:08:19.103Z,6.78
2019-06-20T06:10:47.867Z,7.20
2019-06-20T06:13:16.985Z,7.25
2019-06-20T06:15:45.810Z,6.85
2019-06-20T06:18:14.573Z,7.08
2019-06-20T06:20:44.938Z,6.95
2019-06-20T06:23:13.902Z,6.37
2019-06-20T06:25:42.996Z,6.62
2019-06-20T06:28:12.672Z,7.17
2019-06-20T06:30:41.782Z,6.50
2019-06-20T06:33:10.677Z,6.62
2019-06-20T06:35:39.451Z,7.10
2019-06-20T06:38:08.352Z,6.22
2019-06-20T06:40:37.241Z,5.83
2019-06-20T06:43:06.254Z,6.30
2019-06-20T06:45:35.661Z,5.65
2019-06-20T06:48:04.549Z,5.50
2019-06-20T06:50:33.587Z,5.80
2019-06-20T06:53:02.462Z,5.70
2019-06-20T06:55:31.558Z,5.65
2019-06-20T06:58:01.091Z,5.70
2019-06-20T07:00:30.115Z,5.50
2019-06-20T07:02:58.897Z,5.45
2019-06-20T07:05:27.732Z,5.35
2019-06-20T07:07:56.487Z,5.22
2019-06-20T07:10:25.471Z,4.62
2019-06-20T07:12:54.300Z,5.60
2019-06-20T07:15:23.263Z,5.15
2019-06-20T07:17:52.069Z,5.10
2019-06-20T07:20:21.208Z,5.40
2019-06-20T07:22:49.946Z,5.15
2019-06-20T07:25:19.159Z,5.58
2019-06-20T07:27:47.926Z,5.37
2019-06-20T07:30:17.416Z,5.10
2019-06-20T07:32:46.165Z,5.60
2019-06-20T07:35:15.238Z,5.70
2019-06-20T07:37:44.031Z,5.80
2019-06-20T07:40:13.207Z,5.30
2019-06-20T07:42:41.962Z,5.80
2019-06-20T07:45:12.520Z,5.37
2019-06-20T07:47:41.403Z,5.55
2019-06-20T07:50:10.883Z,5.70
2019-06-20T07:52:39.709Z,5.75
2019-06-20T07:55:08.829Z,6.55
2019-06-20T07:57:37.642Z,6.22
2019-06-20T08:00:07.632Z,6.65
2019-06-20T08:02:36.481Z,6.22
2019-06-20T08:05:06.108Z,6.50
2019-06-20T08:07:34.928Z,6.47
2019-06-20T08:10:04.874Z,5.83
2019-06-20T08:12:33.685Z,6.33
2019-06-20T08:15:14.474Z,5.90
2019-06-20T08:17:35.670Z,6.30
2019-06-20T08:20:03.739Z,5.75
2019-06-20T08:22:32.626Z,6.28
2019-06-20T08:25:01.441Z,5.87
2019-06-20T08:27:49.287Z,6.00
2019-06-20T08:30:18.835Z,6.20
2019-06-20T08:32:47.618Z,6.00
2019-06-20T08:35:16.525Z,5.80
2019-06-20T08:37:45.354Z,5.62
2019-06-20T08:40:14.324Z,5.75
2019-06-20T08:42:43.252Z,5.35
2019-06-20T08:45:12.454Z,4.70
2019-06-20T08:47:41.230Z,4.90
2019-06-20T08:50:10.062Z,5.05
2019-06-20T08:52:39.921Z,4.85
2019-06-20T08:55:10.300Z,5.08
2019-06-20T08:57:40.710Z,5.20
2019-06-20T09:00:11.151Z,5.40
2019-06-20T09:02:41.305Z,5.05
2019-06-20T09:05:12.330Z,5.15
2019-06-20T09:07:42.020Z,4.80
2019-06-20T09:10:15.517Z,4.40
2019-06-20T09:12:48.928Z,4.47
2019-06-20T09:15:18.987Z,4.15
2019-06-20T09:17:49.490Z,4.00
2019-06-20T09:20:20.845Z,4.55
2019-06-20T09:22:50.696Z,5.00
2019-06-20T09:25:23.107Z,4.60
2019-06-20T09:27:54.381Z,5.20
2019-06-20T09:30:25.111Z,5.20
2019-06-20T09:32:56.255Z,5.05
2019-06-20T09:35:26.048Z,4.87
2019-06-20T09:37:55.179Z,4.28
2019-06-20T09:40:30.317Z,5.17
2019-06-20T09:42:59.511Z,5.05
2019-06-20T09:45:28.962Z,4.72
2019-06-20T09:47:58.539Z,4.75
2019-06-20T09:50:27.614Z,4.47
2019-06-20T09:52:58.420Z,4.10
2019-06-20T09:55:28.675Z,4.20
2019-06-20T09:57:58.270Z,4.33
2019-06-20T10:00:29.137Z,4.15
2019-06-20T10:02:58.012Z,3.98
2019-06-20T10:05:30.961Z,3.75
2019-06-20T10:07:59.934Z,3.95
2019-06-20T10:10:29.617Z,4.10
2019-06-20T10:13:02.102Z,4.30
2019-06-20T10:15:36.845Z,4.37
2019-06-20T10:18:06.906Z,3.80
2019-06-20T10:20:38.796Z,3.22
2019-06-20T10:23:06.857Z,3.30
2019-06-20T10:25:36.324Z,3.70
2019-06-20T10:28:05.426Z,3.80
2019-06-20T10:30:34.481Z,3.02
2019-06-20T10:33:05.623Z,3.10
2019-06-20T10:35:34.668Z,3.42
2019-06-20T10:38:03.653Z,2.95
2019-06-20T10:40:32.730Z,3.40
2019-06-20T10:43:01.682Z,3.60
2019-06-20T10:45:31.801Z,3.55
2019-06-20T10:48:00.660Z,3.50
2019-06-20T10:50:30.575Z,3.70
2019-06-20T10:53:01.902Z,3.77
2019-06-20T10:55:32.242Z,3.67
2019-06-20T10:58:01.557Z,3.37
2019-06-20T11:00:32.157Z,3.60
2019-06-20T11:03:01.711Z,3.22
2019-06-20T11:05:30.592Z,3.40
2019-06-20T11:07:59.339Z,3.80
2019-06-20T11:10:28.916Z,3.60
2019-06-20T11:12:57.730Z,4.22
2019-06-20T11:15:27.011Z,4.42
2019-06-20T11:17:56.925Z,4.30
2019-06-20T11:20:26.376Z,5.37
2019-06-20T11:22:55.110Z,4.87
2019-06-20T11:25:23.895Z,5.47
2019-06-20T11:27:53.409Z,5.05
2019-06-20T11:30:22.495Z,5.08
2019-06-20T11:32:51.418Z,5.05
2019-06-20T11:35:20.422Z,4.83
2019-06-20T11:37:49.293Z,4.20
2019-06-20T11:40:18.612Z,4.20
2019-06-20T11:42:47.350Z,3.80
2019-06-20T11:45:16.742Z,4.00
2019-06-20T11:47:47.101Z,4.40
2019-06-20T11:50:19.394Z,4.42
2019-06-20T11:52:49.289Z,4.10
2019-06-20T11:55:19.544Z,4.50
2019-06-20T11:57:48.573Z,4.40
2019-06-20T12:00:17.860Z,4.70
2019-06-20T12:02:48.244Z,5.12
2019-06-20T12:05:17.927Z,4.50
2019-06-20T12:07:47.858Z,4.50
2019-06-20T12:10:18.714Z,4.50
2019-06-20T12:12:48.999Z,4.78
2019-06-20T12:15:19.376Z,4.12
2019-06-20T12:17:49.504Z,4.72
2019-06-20T12:20:20.217Z,5.17
2019-06-20T12:22:50.745Z,5.45
2019-06-20T12:25:21.116Z,4.72
2019-06-20T12:27:50.725Z,4.85
2019-06-20T12:30:21.176Z,4.80
2019-06-20T12:32:52.130Z,5.03
2019-06-20T12:35:24.937Z,4.75
2019-06-20T12:37:55.435Z,4.35
2019-06-20T12:40:25.844Z,4.85
2019-06-20T12:42:54.966Z,4.58
2019-06-20T12:45:23.930Z,5.35
2019-06-20T12:47:53.125Z,5.80
2019-06-20T12:50:22.891Z,5.05
2019-06-20T12:52:52.485Z,5.15
2019-06-20T12:55:21.597Z,5.55
2019-06-20T12:57:50.696Z,4.62
2019-06-20T13:00:22.046Z,5.17
2019-06-20T13:04:14.155Z,4.83
2019-06-20T13:07:10.681Z,5.37
2019-06-20T13:09:41.118Z,5.40
2019-06-20T13:12:11.610Z,5.08
2019-06-20T13:14:40.903Z,5.40
2019-06-20T13:17:10.372Z,5.50
2019-06-20T13:19:40.316Z,6.00
2019-06-20T13:22:10.711Z,5.55
2019-06-20T13:24:40.985Z,5.97
2019-06-20T13:27:10.276Z,6.37
2019-06-20T13:29:40.817Z,5.55
2019-06-20T13:32:10.376Z,5.58
2019-06-20T13:34:41.600Z,5.85
2019-06-20T13:37:15.477Z,5.53
2019-06-20T13:39:45.780Z,5.30
2019-06-20T13:42:14.517Z,5.53
2019-06-20T13:44:44.477Z,5.00
2019-06-20T13:47:14.443Z,5.50
2019-06-20T13:49:45.744Z,5.08
2019-06-20T13:52:16.528Z,5.60
2019-06-20T13:54:46.656Z,5.40
2019-06-20T13:57:16.635Z,5.92
2019-06-20T13:59:52.456Z,5.30
2019-06-20T14:02:20.022Z,5.97
2019-06-20T14:04:50.743Z,5.50
2019-06-20T14:07:23.435Z,5.53
2019-06-20T14:09:53.165Z,6.17
2019-06-20T14:12:23.226Z,10.15
2019-06-20T14:14:54.599Z,5.95
2019-06-20T14:17:24.550Z,5.87
2019-06-20T14:19:53.960Z,5.70
2019-06-20T14:22:39.436Z,5.75
2019-06-20T14:25:09.737Z,6.10
2019-06-20T14:27:38.502Z,5.83
2019-06-20T14:30:07.736Z,6.60
2019-06-20T14:32:37.563Z,5.72
2019-06-20T14:35:08.272Z,5.72
2019-06-20T14:37:37.022Z,6.03
2019-06-20T14:40:06.379Z,5.85
2019-06-20T14:42:35.127Z,5.83
2019-06-20T14:45:04.443Z,5.90
2019-06-20T14:47:33.262Z,5.33
2019-06-20T14:50:01.993Z,6.25
2019-06-20T14:52:31.094Z,5.90
2019-06-20T14:55:00.110Z,5.70
2019-06-20T14:57:28.889Z,5.65
2019-06-20T14:59:57.657Z,6.20
2019-06-20T15:02:38.005Z,5.53
2019-06-20T15:04:56.977Z,6.40
2019-06-20T15:07:26.087Z,6.08
2019-06-20T15:09:55.309Z,6.28
2019-06-20T15:12:24.129Z,6.28
2019-06-20T15:14:53.427Z,6.95
2019-06-20T15:17:22.205Z,7.00
2019-06-20T15:19:51.407Z,7.72
2019-06-20T15:22:20.151Z,7.40
2019-06-20T15:24:51.734Z,6.67
2019-06-20T15:27:19.544Z,6.45
2019-06-20T15:29:48.919Z,6.80
2019-06-20T15:32:19.156Z,7.45
2019-06-20T15:34:49.339Z,7.03
2019-06-20T15:37:18.165Z,7.50
2019-06-20T15:39:48.503Z,7.50
2019-06-20T15:42:17.437Z,7.17
2019-06-20T15:44:47.272Z,6.97
2019-06-20T15:47:20.617Z,7.28
2019-06-20T15:49:54.445Z,7.20
2019-06-20T15:52:23.830Z,7.42
2019-06-20T15:54:53.930Z,7.05
2019-06-20T15:57:22.671Z,8.08
2019-06-20T15:59:52.826Z,7.35
2019-06-20T16:02:24.963Z,6.95
2019-06-20T16:04:54.979Z,7.08
2019-06-20T16:07:25.589Z,7.87
2019-06-20T16:09:54.378Z,7.20
2019-06-20T16:12:23.194Z,7.05
2019-06-20T16:14:52.021Z,7.40
2019-06-20T16:17:20.706Z,7.45
2019-06-20T16:19:49.409Z,7.80
2019-06-20T16:22:18.130Z,8.18
2019-06-20T16:24:46.929Z,8.05
2019-06-20T16:27:15.954Z,8.05
2019-06-20T16:29:44.786Z,7.97
2019-06-20T16:32:13.514Z,8.40
2019-06-20T16:34:42.426Z,8.30
2019-06-20T16:37:11.113Z,9.08
2019-06-20T16:39:39.983Z,8.25
2019-06-20T16:42:08.671Z,7.87
2019-06-20T16:44:37.673Z,7.75
2019-06-20T16:47:07.308Z,8.20
2019-06-20T16:49:36.081Z,8.10
2019-06-20T16:52:04.943Z,8.10
2019-06-20T16:54:33.660Z,7.50
2019-06-20T16:57:02.409Z,7.45
2019-06-20T16:59:31.120Z,7.80
2019-06-20T17:01:59.810Z,7.90
2019-06-20T17:04:28.546Z,8.05
2019-06-20T17:06:57.245Z,7.30
2019-06-20T17:09:25.959Z,7.47
2019-06-20T17:11:54.958Z,7.42
2019-06-20T17:14:23.670Z,7.58
2019-06-20T17:16:54.607Z,7.92
2019-06-20T17:19:23.299Z,6.80
2019-06-20T17:21:52.078Z,6.90
2019-06-20T17:24:20.752Z,7.62
2019-06-20T17:27:13.085Z,7.20
2019-06-20T17:29:41.822Z,7.25
2019-06-20T17:32:10.657Z,7.62
2019-06-20T17:34:39.590Z,7.00
2019-06-20T17:37:08.354Z,8.00
2019-06-20T17:39:37.094Z,9.38
2019-06-20T17:42:05.843Z,9.68
2019-06-20T17:45:17.801Z,9.78
2019-06-20T17:47:35.998Z,9.68
2019-06-20T17:50:06.108Z,7.17
2019-06-20T17:52:35.025Z,8.40
2019-06-20T17:55:04.485Z,9.30
2019-06-20T17:57:33.227Z,10.08
2019-06-20T18:00:02.556Z,11.30
2019-06-20T18:02:31.506Z,12.37
2019-06-20T18:05:00.412Z,12.07
2019-06-20T18:07:29.398Z,12.17
2019-06-20T18:10:01.533Z,13.00
2019-06-20T18:12:30.506Z,12.43
2019-06-20T18:14:59.420Z,12.45
2019-06-20T18:17:28.210Z,12.67
2019-06-20T18:19:57.968Z,12.23
2019-06-20T18:22:26.748Z,12.03
2019-06-20T18:24:55.836Z,12.28
2019-06-20T18:27:25.119Z,11.90
2019-06-20T18:29:54.232Z,11.47
2019-06-20T18:32:23.271Z,11.78
2019-06-20T18:35:01.818Z,11.50
2019-06-20T18:37:31.504Z,10.63
2019-06-20T18:39:53.753Z,11.93
2019-06-20T18:42:23.180Z,11.70
2019-06-20T18:44:55.163Z,11.57
2019-06-20T18:47:24.124Z,11.43
2019-06-20T18:49:53.359Z,11.70
2019-06-20T18:52:22.223Z,11.07
2019-06-20T18:54:50.958Z,10.82
2019-06-20T18:57:20.049Z,10.53
2019-06-20T18:59:55.056Z,11.03
2019-06-20T19:02:24.059Z,13.20
2019-06-20T19:04:52.992Z,11.30
2019-06-20T19:07:22.216Z,11.93
2019-06-20T19:09:51.462Z,12.00
2019-06-20T19:12:20.430Z,12.37
2019-06-20T19:14:49.423Z,11.45
2019-06-20T19:17:18.273Z,11.75
2019-06-20T19:19:47.065Z,11.33
2019-06-20T19:22:15.767Z,11.27
2019-06-20T19:24:44.569Z,10.33
2019-06-20T19:27:13.277Z,11.80
2019-06-20T19:29:42.069Z,10.90
2019-06-20T19:32:10.832Z,10.32
2019-06-20T19:34:39.652Z,10.35
2019-06-20T19:37:08.459Z,10.32
2019-06-20T19:39:37.319Z,10.03
2019-06-20T19:42:06.135Z,10.30
2019-06-20T19:44:35.274Z,10.23
2019-06-20T19:47:04.573Z,10.38
2019-06-20T19:49:34.135Z,10.30
2019-06-20T19:52:03.059Z,10.40
2019-06-20T19:54:32.412Z,10.53
2019-06-20T19:57:01.283Z,9.87
2019-06-20T19:59:30.409Z,11.23
2019-06-20T20:01:59.256Z,11.33
2019-06-20T20:04:28.011Z,11.37
2019-06-20T20:06:56.740Z,12.63
2019-06-20T20:09:25.702Z,12.23
2019-06-20T20:11:54.529Z,13.57
2019-06-20T20:14:23.588Z,12.97
2019-06-20T20:16:52.622Z,14.03
2019-06-20T20:19:21.460Z,13.63
2019-06-20T20:21:50.630Z,14.80
2019-06-20T20:24:19.951Z,14.93
2019-06-20T20:26:48.722Z,15.53
2019-06-20T20:29:17.515Z,15.47
2019-06-20T20:31:46.287Z,16.20
2019-06-20T20:34:15.092Z,17.10
2019-06-20T20:36:43.895Z,17.53
2019-06-20T20:39:12.605Z,17.93
2019-06-20T20:41:41.402Z,17.67
2019-06-20T20:44:10.104Z,17.97
2019-06-20T20:46:38.819Z,18.57
2019-06-20T20:49:07.653Z,19.13
2019-06-20T20:51:36.356Z,18.60
2019-06-20T20:54:05.280Z,18.47
2019-06-20T20:56:34.121Z,18.13
2019-06-20T20:59:02.996Z,17.50
2019-06-20T21:01:35.172Z,18.40
2019-06-20T21:04:02.276Z,19.00
2019-06-20T21:06:30.987Z,17.90
2019-06-20T21:09:00.142Z,19.20
2019-06-20T21:11:28.954Z,18.73
2019-06-20T21:13:57.697Z,18.80
2019-06-20T21:16:26.381Z,18.90
2019-06-20T21:18:55.087Z,19.43
2019-06-20T21:21:23.884Z,19.17
2019-06-20T21:23:52.589Z,21.03
2019-06-20T21:26:21.407Z,20.70
2019-06-20T21:28:50.151Z,21.10
2019-06-20T21:31:18.905Z,21.67
2019-06-20T21:33:47.881Z,21.70
2019-06-20T21:36:16.713Z,21.13
2019-06-20T21:38:45.457Z,22.47
2019-06-20T21:41:14.271Z,22.27
2019-06-20T21:43:42.984Z,22.77
2019-06-20T21:46:11.730Z,22.57
2019-06-20T21:48:40.451Z,24.30
2019-06-20T21:51:09.284Z,22.93
2019-06-20T21:53:38.102Z,23.57
2019-06-20T21:56:06.958Z,24.60
2019-06-20T21:58:35.689Z,24.87
2019-06-20T22:01:05.304Z,24.63
2019-06-20T22:03:34.015Z,23.50
2019-06-20T22:06:02.788Z,22.30
2019-06-20T22:08:31.632Z,24.33
2019-06-20T22:11:00.506Z,23.70
2019-06-20T22:13:29.315Z,23.27
2019-06-20T22:15:58.044Z,25.20
2019-06-20T22:18:26.775Z,23.67
2019-06-20T22:20:55.725Z,23.67
2019-06-20T22:23:24.931Z,24.07
2019-06-20T22:25:53.797Z,22.47
2019-06-20T22:28:22.655Z,21.87
2019-06-20T22:30:53.750Z,23.20
2019-06-20T22:33:22.726Z,22.47
2019-06-20T22:35:51.899Z,21.87
2019-06-20T22:38:20.623Z,22.90
2019-06-20T22:40:49.531Z,24.50
2019-06-20T22:43:18.282Z,22.43
2019-06-20T22:45:47.434Z,23.27
2019-06-20T22:48:16.359Z,23.33
2019-06-20T22:50:46.700Z,24.07
2019-06-20T22:53:15.492Z,24.80
2019-06-20T22:55:44.301Z,24.33
2019-06-20T22:58:13.113Z,24.07
2019-06-20T23:00:41.866Z,23.57
2019-06-20T23:03:10.613Z,24.03
2019-06-20T23:05:39.349Z,24.77
2019-06-20T23:08:08.428Z,24.53
2019-06-20T23:10:37.174Z,25.53
2019-06-20T23:13:06.006Z,25.90
2019-06-20T23:15:34.767Z,18.07
2019-06-20T23:18:03.658Z,19.13
2019-06-20T23:20:32.397Z,19.53
2019-06-20T23:23:01.159Z,18.37
2019-06-20T23:25:29.990Z,18.67
2019-06-20T23:27:58.710Z,18.27
2019-06-20T23:30:28.132Z,19.17
2019-06-20T23:32:57.339Z,19.77
2019-06-20T23:35:26.410Z,20.10
2019-06-20T23:37:55.379Z,19.67
2019-06-20T23:40:24.192Z,19.97
2019-06-20T23:42:52.936Z,19.97
2019-06-20T23:45:21.763Z,21.97
2019-06-20T23:47:50.556Z,21.90
2019-06-20T23:50:19.388Z,22.20
2019-06-20T23:52:53.548Z,21.47
2019-06-20T23:55:22.381Z,22.03
2019-06-20T23:57:51.156Z,22.60
